Weather at Alghero-Fertilia Airport

Public forecast

Using degrees Celsius for public forecast. Weather courtesy of forecast.io.

Current aviation weather report (METAR) for Alghero-Fertilia Airport

Retrieved 2021/01/23 09:20 UTC (0 seconds ago):

LIEA 230920Z 28011KT 250V310 9999 SCT030 13/07 Q1008

Aviation forecast (TAF) for Alghero-Fertilia Airport

Retrieved 2021/01/23 06:00 UTC (3 hours ago):

TAF LIEA 230500Z 2306/2406 28015G25KT 9999 SCT040 TEMPO 2306/2309 SHRA